sensor_id;sensor_type;location;lat;lon;timestamp;temperature;humidity
28530;DHT22;15737;49.760;6.632;2022-09-27T00:00:04;9.60;99.90
28530;DHT22;15737;49.760;6.632;2022-09-27T00:02:29;9.60;99.90
28530;DHT22;15737;49.760;6.632;2022-09-27T00:04:55;9.60;99.90
28530;DHT22;15737;49.760;6.632;2022-09-27T00:07:20;9.60;99.90
28530;DHT22;15737;49.760;6.632;2022-09-27T00:09:46;9.60;99.90
28530;DHT22;15737;49.760;6.632;2022-09-27T00:12:11;9.60;99.90
28530;DHT22;15737;49.760;6.632;2022-09-27T00:14:37;9.60;99.90
28530;DHT22;15737;49.760;6.632;2022-09-27T00:17:03;9.50;99.90
28530;DHT22;15737;49.760;6.632;2022-09-27T00:19:29;9.50;99.90
28530;DHT22;15737;49.760;6.632;2022-09-27T00:21:55;9.50;99.90
28530;DHT22;15737;49.760;6.632;2022-09-27T00:24:21;9.50;99.90
28530;DHT22;15737;49.760;6.632;2022-09-27T00:26:48;9.50;99.90
28530;DHT22;15737;49.760;6.632;2022-09-27T00:29:15;9.50;99.90
28530;DHT22;15737;49.760;6.632;2022-09-27T00:31:41;9.50;99.90
28530;DHT22;15737;49.760;6.632;2022-09-27T00:34:07;9.50;99.90
28530;DHT22;15737;49.760;6.632;2022-09-27T00:36:35;9.50;99.90
28530;DHT22;15737;49.760;6.632;2022-09-27T00:39:01;9.40;99.90
28530;DHT22;15737;49.760;6.632;2022-09-27T00:41:32;9.50;99.90
28530;DHT22;15737;49.760;6.632;2022-09-27T00:47:03;9.50;99.90
28530;DHT22;15737;49.760;6.632;2022-09-27T00:49:34;9.40;99.90
28530;DHT22;15737;49.760;6.632;2022-09-27T00:52:07;9.40;99.90
28530;DHT22;15737;49.760;6.632;2022-09-27T00:54:35;9.40;99.90
28530;DHT22;15737;49.760;6.632;2022-09-27T00:57:04;9.40;99.90
28530;DHT22;15737;49.760;6.632;2022-09-27T00:59:34;9.30;99.90
28530;DHT22;15737;49.760;6.632;2022-09-27T01:02:03;9.30;99.90
28530;DHT22;15737;49.760;6.632;2022-09-27T01:04:31;9.20;99.90
28530;DHT22;15737;49.760;6.632;2022-09-27T01:06:57;9.20;99.90
28530;DHT22;15737;49.760;6.632;2022-09-27T01:09:23;9.20;99.90
28530;DHT22;15737;49.760;6.632;2022-09-27T01:23:52;8.90;99.90
28530;DHT22;15737;49.760;6.632;2022-09-27T01:35:22;8.90;99.90
28530;DHT22;15737;49.760;6.632;2022-09-27T01:38:16;8.90;99.90
28530;DHT22;15737;49.760;6.632;2022-09-27T01:43:51;8.90;99.90
28530;DHT22;15737;49.760;6.632;2022-09-27T01:46:24;8.90;99.90
28530;DHT22;15737;49.760;6.632;2022-09-27T01:48:51;8.90;99.90
28530;DHT22;15737;49.760;6.632;2022-09-27T01:51:29;8.90;99.90
28530;DHT22;15737;49.760;6.632;2022-09-27T01:54:01;8.90;99.90
28530;DHT22;15737;49.760;6.632;2022-09-27T01:56:39;8.90;99.90
28530;DHT22;15737;49.760;6.632;2022-09-27T01:59:21;8.90;99.90
28530;DHT22;15737;49.760;6.632;2022-09-27T02:01:55;8.90;99.90
28530;DHT22;15737;49.760;6.632;2022-09-27T02:04:27;8.90;99.90
28530;DHT22;15737;49.760;6.632;2022-09-27T02:06:59;8.90;99.90
28530;DHT22;15737;49.760;6.632;2022-09-27T02:09:34;8.90;99.90
28530;DHT22;15737;49.760;6.632;2022-09-27T02:12:04;8.90;99.90
28530;DHT22;15737;49.760;6.632;2022-09-27T02:14:50;8.90;99.90
28530;DHT22;15737;49.760;6.632;2022-09-27T02:17:38;8.90;99.90
28530;DHT22;15737;49.760;6.632;2022-09-27T02:30:30;8.90;99.90
28530;DHT22;15737;49.760;6.632;2022-09-27T02:32:55;8.90;99.90
28530;DHT22;15737;49.760;6.632;2022-09-27T02:35:27;8.90;99.90
28530;DHT22;15737;49.760;6.632;2022-09-27T02:37:54;8.90;99.90
28530;DHT22;15737;49.760;6.632;2022-09-27T02:40:21;8.90;99.90
28530;DHT22;15737;49.760;6.632;2022-09-27T02:42:47;8.90;99.90
28530;DHT22;15737;49.760;6.632;2022-09-27T02:45:13;8.90;99.90
28530;DHT22;15737;49.760;6.632;2022-09-27T02:56:07;8.90;99.90
28530;DHT22;15737;49.760;6.632;2022-09-27T03:01:26;8.90;99.90
28530;DHT22;15737;49.760;6.632;2022-09-27T03:06:35;8.80;99.90
28530;DHT22;15737;49.760;6.632;2022-09-27T03:09:01;8.80;99.90
28530;DHT22;15737;49.760;6.632;2022-09-27T03:11:27;8.80;99.90
28530;DHT22;15737;49.760;6.632;2022-09-27T03:13:53;8.80;99.90
28530;DHT22;15737;49.760;6.632;2022-09-27T03:16:18;8.80;99.90
28530;DHT22;15737;49.760;6.632;2022-09-27T03:18:44;8.80;99.90
28530;DHT22;15737;49.760;6.632;2022-09-27T03:21:10;8.80;99.90
28530;DHT22;15737;49.760;6.632;2022-09-27T03:23:35;8.70;99.90
28530;DHT22;15737;49.760;6.632;2022-09-27T03:26:01;8.70;99.90
28530;DHT22;15737;49.760;6.632;2022-09-27T03:28:26;8.80;99.90
28530;DHT22;15737;49.760;6.632;2022-09-27T03:30:54;8.80;99.90
28530;DHT22;15737;49.760;6.632;2022-09-27T03:33:19;8.90;99.90
28530;DHT22;15737;49.760;6.632;2022-09-27T03:35:45;8.80;99.90
28530;DHT22;15737;49.760;6.632;2022-09-27T03:38:10;8.80;99.90
28530;DHT22;15737;49.760;6.632;2022-09-27T03:40:37;8.80;99.90
28530;DHT22;15737;49.760;6.632;2022-09-27T03:43:02;8.80;99.90
28530;DHT22;15737;49.760;6.632;2022-09-27T03:45:28;8.80;99.90
28530;DHT22;15737;49.760;6.632;2022-09-27T03:47:53;8.80;99.90
28530;DHT22;15737;49.760;6.632;2022-09-27T03:50:19;8.70;99.90
28530;DHT22;15737;49.760;6.632;2022-09-27T03:52:45;8.70;99.90
28530;DHT22;15737;49.760;6.632;2022-09-27T03:57:44;8.70;99.90
28530;DHT22;15737;49.760;6.632;2022-09-27T04:00:10;8.80;99.90
28530;DHT22;15737;49.760;6.632;2022-09-27T04:02:36;8.80;99.90
28530;DHT22;15737;49.760;6.632;2022-09-27T04:05:01;8.80;99.90
28530;DHT22;15737;49.760;6.632;2022-09-27T04:07:27;8.80;99.90
28530;DHT22;15737;49.760;6.632;2022-09-27T04:09:53;8.80;99.90
28530;DHT22;15737;49.760;6.632;2022-09-27T04:12:18;8.80;99.90
28530;DHT22;15737;49.760;6.632;2022-09-27T04:14:44;8.80;99.90
28530;DHT22;15737;49.760;6.632;2022-09-27T04:17:09;8.80;99.90
28530;DHT22;15737;49.760;6.632;2022-09-27T04:19:35;8.80;99.90
28530;DHT22;15737;49.760;6.632;2022-09-27T04:22:02;8.80;99.90
28530;DHT22;15737;49.760;6.632;2022-09-27T04:24:27;8.80;99.90
28530;DHT22;15737;49.760;6.632;2022-09-27T04:26:53;8.80;99.90
28530;DHT22;15737;49.760;6.632;2022-09-27T04:29:18;8.90;99.90
28530;DHT22;15737;49.760;6.632;2022-09-27T04:31:44;8.90;99.90
28530;DHT22;15737;49.760;6.632;2022-09-27T04:34:09;8.90;99.90
28530;DHT22;15737;49.760;6.632;2022-09-27T04:36:35;8.90;99.90
28530;DHT22;15737;49.760;6.632;2022-09-27T04:39:03;9.00;99.90
28530;DHT22;15737;49.760;6.632;2022-09-27T04:41:29;8.90;99.90
28530;DHT22;15737;49.760;6.632;2022-09-27T04:43:55;8.90;99.90
28530;DHT22;15737;49.760;6.632;2022-09-27T04:46:22;8.80;99.90
28530;DHT22;15737;49.760;6.632;2022-09-27T04:48:48;8.80;99.90
28530;DHT22;15737;49.760;6.632;2022-09-27T04:51:15;8.70;99.90
28530;DHT22;15737;49.760;6.632;2022-09-27T04:53:45;8.60;99.90
28530;DHT22;15737;49.760;6.632;2022-09-27T04:56:12;8.60;99.90
28530;DHT22;15737;49.760;6.632;2022-09-27T04:58:38;8.60;99.90
28530;DHT22;15737;49.760;6.632;2022-09-27T05:01:04;8.60;99.90
28530;DHT22;15737;49.760;6.632;2022-09-27T05:03:30;8.60;99.90
28530;DHT22;15737;49.760;6.632;2022-09-27T05:05:57;8.60;99.90
28530;DHT22;15737;49.760;6.632;2022-09-27T05:08:23;8.60;99.90
28530;DHT22;15737;49.760;6.632;2022-09-27T05:10:48;8.60;99.90
28530;DHT22;15737;49.760;6.632;2022-09-27T05:13:15;8.60;99.90
28530;DHT22;15737;49.760;6.632;2022-09-27T05:15:41;8.60;99.90
28530;DHT22;15737;49.760;6.632;2022-09-27T05:18:07;8.60;99.90
28530;DHT22;15737;49.760;6.632;2022-09-27T05:20:35;8.60;99.90
28530;DHT22;15737;49.760;6.632;2022-09-27T05:23:01;8.60;99.90
28530;DHT22;15737;49.760;6.632;2022-09-27T05:25:29;8.60;99.90
28530;DHT22;15737;49.760;6.632;2022-09-27T05:30:25;8.50;99.90
28530;DHT22;15737;49.760;6.632;2022-09-27T05:32:52;8.50;99.90
28530;DHT22;15737;49.760;6.632;2022-09-27T05:35:19;8.50;99.90
28530;DHT22;15737;49.760;6.632;2022-09-27T05:37:56;8.50;99.90
28530;DHT22;15737;49.760;6.632;2022-09-27T05:40:22;8.50;99.90
28530;DHT22;15737;49.760;6.632;2022-09-27T05:42:52;8.50;99.90
28530;DHT22;15737;49.760;6.632;2022-09-27T05:45:19;8.50;99.90
28530;DHT22;15737;49.760;6.632;2022-09-27T05:48:05;8.50;99.90
28530;DHT22;15737;49.760;6.632;2022-09-27T05:50:31;8.50;99.90
28530;DHT22;15737;49.760;6.632;2022-09-27T05:52:57;8.50;99.90
28530;DHT22;15737;49.760;6.632;2022-09-27T05:55:22;8.50;99.90
28530;DHT22;15737;49.760;6.632;2022-09-27T05:57:59;8.40;99.90
28530;DHT22;15737;49.760;6.632;2022-09-27T06:00:26;8.40;99.90
28530;DHT22;15737;49.760;6.632;2022-09-27T06:02:56;8.40;99.90
28530;DHT22;15737;49.760;6.632;2022-09-27T06:05:23;8.40;99.90
28530;DHT22;15737;49.760;6.632;2022-09-27T06:07:50;8.40;99.90
28530;DHT22;15737;49.760;6.632;2022-09-27T06:10:18;8.40;99.90
28530;DHT22;15737;49.760;6.632;2022-09-27T06:12:44;8.40;99.90
28530;DHT22;15737;49.760;6.632;2022-09-27T06:15:10;8.40;99.90
28530;DHT22;15737;49.760;6.632;2022-09-27T06:17:36;8.40;99.90
28530;DHT22;15737;49.760;6.632;2022-09-27T06:20:02;8.40;99.90
28530;DHT22;15737;49.760;6.632;2022-09-27T06:22:28;8.40;99.90
28530;DHT22;15737;49.760;6.632;2022-09-27T06:24:54;8.40;99.90
28530;DHT22;15737;49.760;6.632;2022-09-27T06:27:19;8.50;99.90
28530;DHT22;15737;49.760;6.632;2022-09-27T06:32:14;8.50;99.90
28530;DHT22;15737;49.760;6.632;2022-09-27T06:34:39;8.50;99.90
28530;DHT22;15737;49.760;6.632;2022-09-27T06:37:06;8.50;99.90
28530;DHT22;15737;49.760;6.632;2022-09-27T06:39:32;8.50;99.90
28530;DHT22;15737;49.760;6.632;2022-09-27T06:41:58;8.50;99.90
28530;DHT22;15737;49.760;6.632;2022-09-27T06:44:24;8.60;99.90
28530;DHT22;15737;49.760;6.632;2022-09-27T06:46:51;8.70;99.90
28530;DHT22;15737;49.760;6.632;2022-09-27T06:49:17;8.70;99.90
28530;DHT22;15737;49.760;6.632;2022-09-27T06:51:44;8.80;99.90
28530;DHT22;15737;49.760;6.632;2022-09-27T06:54:10;8.70;99.90
28530;DHT22;15737;49.760;6.632;2022-09-27T06:56:35;8.70;99.90
28530;DHT22;15737;49.760;6.632;2022-09-27T06:59:01;8.70;99.90
28530;DHT22;15737;49.760;6.632;2022-09-27T07:01:45;8.70;99.90
28530;DHT22;15737;49.760;6.632;2022-09-27T07:04:11;8.80;99.90
28530;DHT22;15737;49.760;6.632;2022-09-27T07:06:38;8.90;99.90
28530;DHT22;15737;49.760;6.632;2022-09-27T07:09:04;8.90;99.90
28530;DHT22;15737;49.760;6.632;2022-09-27T07:11:33;8.90;99.90
28530;DHT22;15737;49.760;6.632;2022-09-27T07:14:01;8.90;99.90
28530;DHT22;15737;49.760;6.632;2022-09-27T07:16:28;9.00;99.90
28530;DHT22;15737;49.760;6.632;2022-09-27T07:18:53;9.00;99.90
28530;DHT22;15737;49.760;6.632;2022-09-27T07:21:19;9.00;99.90
28530;DHT22;15737;49.760;6.632;2022-09-27T07:23:44;9.10;99.90
28530;DHT22;15737;49.760;6.632;2022-09-27T07:26:11;9.20;99.90
28530;DHT22;15737;49.760;6.632;2022-09-27T07:28:37;9.30;99.90
28530;DHT22;15737;49.760;6.632;2022-09-27T07:31:06;9.50;99.90
28530;DHT22;15737;49.760;6.632;2022-09-27T07:33:31;10.10;99.90
28530;DHT22;15737;49.760;6.632;2022-09-27T07:35:57;12.60;99.90
28530;DHT22;15737;49.760;6.632;2022-09-27T07:38:23;16.60;99.90
28530;DHT22;15737;49.760;6.632;2022-09-27T07:40:48;21.20;99.90
28530;DHT22;15737;49.760;6.632;2022-09-27T07:43:14;20.50;95.50
28530;DHT22;15737;49.760;6.632;2022-09-27T07:45:40;17.50;98.70
28530;DHT22;15737;49.760;6.632;2022-09-27T07:48:06;15.00;99.90
28530;DHT22;15737;49.760;6.632;2022-09-27T07:50:33;13.20;99.90
28530;DHT22;15737;49.760;6.632;2022-09-27T07:52:58;12.20;99.90
28530;DHT22;15737;49.760;6.632;2022-09-27T07:55:24;11.60;99.90
28530;DHT22;15737;49.760;6.632;2022-09-27T07:57:50;11.40;99.90
28530;DHT22;15737;49.760;6.632;2022-09-27T08:00:17;11.10;99.90
28530;DHT22;15737;49.760;6.632;2022-09-27T08:02:44;11.00;99.90
28530;DHT22;15737;49.760;6.632;2022-09-27T08:05:11;11.00;99.90
28530;DHT22;15737;49.760;6.632;2022-09-27T08:07:38;11.20;99.90
28530;DHT22;15737;49.760;6.632;2022-09-27T08:10:05;11.20;99.90
28530;DHT22;15737;49.760;6.632;2022-09-27T08:12:31;11.20;99.90
28530;DHT22;15737;49.760;6.632;2022-09-27T08:14:56;11.40;99.90
28530;DHT22;15737;49.760;6.632;2022-09-27T08:17:26;11.50;99.90
28530;DHT22;15737;49.760;6.632;2022-09-27T08:19:52;12.00;99.90
28530;DHT22;15737;49.760;6.632;2022-09-27T08:22:18;12.60;99.90
28530;DHT22;15737;49.760;6.632;2022-09-27T08:24:46;12.80;99.90
28530;DHT22;15737;49.760;6.632;2022-09-27T08:27:12;12.60;99.90
28530;DHT22;15737;49.760;6.632;2022-09-27T08:29:38;12.30;99.90
28530;DHT22;15737;49.760;6.632;2022-09-27T08:32:12;12.00;99.90
28530;DHT22;15737;49.760;6.632;2022-09-27T08:34:38;12.10;99.90
28530;DHT22;15737;49.760;6.632;2022-09-27T08:37:03;12.00;99.90
28530;DHT22;15737;49.760;6.632;2022-09-27T08:39:30;11.80;99.90
28530;DHT22;15737;49.760;6.632;2022-09-27T08:42:21;11.50;99.90
28530;DHT22;15737;49.760;6.632;2022-09-27T08:47:27;11.40;99.90
28530;DHT22;15737;49.760;6.632;2022-09-27T08:52:41;11.80;99.90
28530;DHT22;15737;49.760;6.632;2022-09-27T08:57:54;12.50;99.90
28530;DHT22;15737;49.760;6.632;2022-09-27T09:00:20;12.70;99.90
28530;DHT22;15737;49.760;6.632;2022-09-27T09:02:47;12.70;99.90
28530;DHT22;15737;49.760;6.632;2022-09-27T09:05:33;12.40;99.90
28530;DHT22;15737;49.760;6.632;2022-09-27T09:08:23;12.10;99.90
28530;DHT22;15737;49.760;6.632;2022-09-27T09:11:06;12.00;99.90
28530;DHT22;15737;49.760;6.632;2022-09-27T09:20:09;11.60;99.90
28530;DHT22;15737;49.760;6.632;2022-09-27T09:24:54;12.00;99.90
28530;DHT22;15737;49.760;6.632;2022-09-27T09:35:53;15.50;99.90
28530;DHT22;15737;49.760;6.632;2022-09-27T09:38:39;14.40;99.90
28530;DHT22;15737;49.760;6.632;2022-09-27T09:44:05;13.10;99.90
28530;DHT22;15737;49.760;6.632;2022-09-27T09:46:42;12.70;99.90
28530;DHT22;15737;49.760;6.632;2022-09-27T09:49:29;12.50;99.90
28530;DHT22;15737;49.760;6.632;2022-09-27T09:52:05;12.00;99.90
28530;DHT22;15737;49.760;6.632;2022-09-27T09:54:32;11.80;99.90
28530;DHT22;15737;49.760;6.632;2022-09-27T09:57:04;11.50;99.90
28530;DHT22;15737;49.760;6.632;2022-09-27T10:00:02;11.00;99.90
28530;DHT22;15737;49.760;6.632;2022-09-27T10:02:34;10.40;99.90
28530;DHT22;15737;49.760;6.632;2022-09-27T10:05:01;9.90;99.90
28530;DHT22;15737;49.760;6.632;2022-09-27T10:07:28;9.50;99.90
28530;DHT22;15737;49.760;6.632;2022-09-27T10:09:58;9.30;99.90
28530;DHT22;15737;49.760;6.632;2022-09-27T10:12:24;9.20;99.90
28530;DHT22;15737;49.760;6.632;2022-09-27T10:14:51;9.30;99.90
28530;DHT22;15737;49.760;6.632;2022-09-27T10:17:20;9.30;99.90
28530;DHT22;15737;49.760;6.632;2022-09-27T10:19:47;9.30;99.90
28530;DHT22;15737;49.760;6.632;2022-09-27T10:22:25;9.20;99.90
28530;DHT22;15737;49.760;6.632;2022-09-27T10:27:18;9.50;99.90
28530;DHT22;15737;49.760;6.632;2022-09-27T10:30:04;9.80;99.90
28530;DHT22;15737;49.760;6.632;2022-09-27T10:32:32;10.40;99.90
28530;DHT22;15737;49.760;6.632;2022-09-27T10:37:45;11.50;99.90
28530;DHT22;15737;49.760;6.632;2022-09-27T10:40:29;11.90;99.90
28530;DHT22;15737;49.760;6.632;2022-09-27T10:42:59;12.90;99.90
28530;DHT22;15737;49.760;6.632;2022-09-27T10:45:30;14.50;99.90
28530;DHT22;15737;49.760;6.632;2022-09-27T10:47:57;15.60;99.90
28530;DHT22;15737;49.760;6.632;2022-09-27T10:50:28;16.80;99.90
28530;DHT22;15737;49.760;6.632;2022-09-27T10:53:11;17.20;99.90
28530;DHT22;15737;49.760;6.632;2022-09-27T10:55:38;17.00;99.90
28530;DHT22;15737;49.760;6.632;2022-09-27T10:58:05;17.50;99.90
28530;DHT22;15737;49.760;6.632;2022-09-27T11:00:33;18.10;99.90
28530;DHT22;15737;49.760;6.632;2022-09-27T11:03:02;17.90;99.90
28530;DHT22;15737;49.760;6.632;2022-09-27T11:05:33;17.60;99.90
28530;DHT22;15737;49.760;6.632;2022-09-27T11:08:02;18.10;99.90
28530;DHT22;15737;49.760;6.632;2022-09-27T11:11:18;18.70;99.90
28530;DHT22;15737;49.760;6.632;2022-09-27T11:14:16;18.90;99.90
28530;DHT22;15737;49.760;6.632;2022-09-27T11:17:07;18.80;98.80
28530;DHT22;15737;49.760;6.632;2022-09-27T11:20:09;18.80;97.10
28530;DHT22;15737;49.760;6.632;2022-09-27T12:02:08;15.30;99.40
28530;DHT22;15737;49.760;6.632;2022-09-27T12:07:26;14.30;99.90
28530;DHT22;15737;49.760;6.632;2022-09-27T12:10:00;13.50;99.90
28530;DHT22;15737;49.760;6.632;2022-09-27T12:12:32;12.90;99.90
28530;DHT22;15737;49.760;6.632;2022-09-27T12:15:19;12.40;99.90
28530;DHT22;15737;49.760;6.632;2022-09-27T12:17:48;11.90;99.90
28530;DHT22;15737;49.760;6.632;2022-09-27T12:20:35;11.00;99.90
28530;DHT22;15737;49.760;6.632;2022-09-27T12:23:19;10.20;99.90
28530;DHT22;15737;49.760;6.632;2022-09-27T12:25:49;9.60;99.90
28530;DHT22;15737;49.760;6.632;2022-09-27T12:28:42;8.90;99.90
28530;DHT22;15737;49.760;6.632;2022-09-27T12:33:43;8.00;99.90
28530;DHT22;15737;49.760;6.632;2022-09-27T12:36:14;8.00;99.90
28530;DHT22;15737;49.760;6.632;2022-09-27T12:38:53;8.30;99.90
28530;DHT22;15737;49.760;6.632;2022-09-27T12:41:22;8.80;99.90
28530;DHT22;15737;49.760;6.632;2022-09-27T12:43:49;9.20;99.90
28530;DHT22;15737;49.760;6.632;2022-09-27T12:49:09;9.40;99.90
28530;DHT22;15737;49.760;6.632;2022-09-27T12:54:31;9.40;99.90
28530;DHT22;15737;49.760;6.632;2022-09-27T13:00:22;10.30;99.90
28530;DHT22;15737;49.760;6.632;2022-09-27T13:03:31;10.80;99.90
28530;DHT22;15737;49.760;6.632;2022-09-27T13:12:10;11.30;99.90
28530;DHT22;15737;49.760;6.632;2022-09-27T13:15:11;11.90;99.90
28530;DHT22;15737;49.760;6.632;2022-09-27T13:23:02;13.00;99.90
28530;DHT22;15737;49.760;6.632;2022-09-27T13:31:08;14.20;99.90
28530;DHT22;15737;49.760;6.632;2022-09-27T13:33:47;14.70;99.90
28530;DHT22;15737;49.760;6.632;2022-09-27T13:36:18;15.40;99.90
28530;DHT22;15737;49.760;6.632;2022-09-27T13:46:50;15.30;99.90
28530;DHT22;15737;49.760;6.632;2022-09-27T13:49:41;14.30;99.90
28530;DHT22;15737;49.760;6.632;2022-09-27T13:52:29;13.30;99.90
28530;DHT22;15737;49.760;6.632;2022-09-27T13:54:59;13.00;99.90
28530;DHT22;15737;49.760;6.632;2022-09-27T13:57:41;12.90;99.90
28530;DHT22;15737;49.760;6.632;2022-09-27T14:07:48;13.40;99.90
28530;DHT22;15737;49.760;6.632;2022-09-27T14:10:17;13.60;99.90
28530;DHT22;15737;49.760;6.632;2022-09-27T14:12:46;13.50;99.90
28530;DHT22;15737;49.760;6.632;2022-09-27T14:15:24;13.60;99.90
28530;DHT22;15737;49.760;6.632;2022-09-27T14:17:52;13.70;99.90
28530;DHT22;15737;49.760;6.632;2022-09-27T14:20:38;13.20;99.90
28530;DHT22;15737;49.760;6.632;2022-09-27T14:23:18;12.20;99.90
28530;DHT22;15737;49.760;6.632;2022-09-27T14:25:46;11.20;99.90
28530;DHT22;15737;49.760;6.632;2022-09-27T14:30:45;10.40;99.90
28530;DHT22;15737;49.760;6.632;2022-09-27T14:33:29;10.30;99.90
28530;DHT22;15737;49.760;6.632;2022-09-27T14:35:55;10.20;99.90
28530;DHT22;15737;49.760;6.632;2022-09-27T14:38:35;10.20;99.90
28530;DHT22;15737;49.760;6.632;2022-09-27T14:41:03;10.00;99.90
28530;DHT22;15737;49.760;6.632;2022-09-27T14:43:29;9.90;99.90
28530;DHT22;15737;49.760;6.632;2022-09-27T14:46:06;10.00;99.90
28530;DHT22;15737;49.760;6.632;2022-09-27T14:48:37;10.20;99.90
28530;DHT22;15737;49.760;6.632;2022-09-27T14:53:44;10.90;99.90
28530;DHT22;15737;49.760;6.632;2022-09-27T14:56:18;11.10;99.90
28530;DHT22;15737;49.760;6.632;2022-09-27T14:58:47;11.20;99.90
28530;DHT22;15737;49.760;6.632;2022-09-27T15:01:18;11.40;99.90
28530;DHT22;15737;49.760;6.632;2022-09-27T15:03:48;11.80;99.90
28530;DHT22;15737;49.760;6.632;2022-09-27T15:06:18;12.60;99.90
28530;DHT22;15737;49.760;6.632;2022-09-27T15:08:45;13.50;99.90
28530;DHT22;15737;49.760;6.632;2022-09-27T15:11:14;14.30;99.90
28530;DHT22;15737;49.760;6.632;2022-09-27T15:13:40;14.70;99.90
28530;DHT22;15737;49.760;6.632;2022-09-27T15:16:15;15.00;99.90
28530;DHT22;15737;49.760;6.632;2022-09-27T15:18:47;14.90;99.90
28530;DHT22;15737;49.760;6.632;2022-09-27T15:21:26;14.50;99.90
28530;DHT22;15737;49.760;6.632;2022-09-27T15:23:52;14.00;99.90
28530;DHT22;15737;49.760;6.632;2022-09-27T15:26:26;13.60;99.90
28530;DHT22;15737;49.760;6.632;2022-09-27T15:28:57;13.10;99.90
28530;DHT22;15737;49.760;6.632;2022-09-27T15:31:34;13.10;99.90
28530;DHT22;15737;49.760;6.632;2022-09-27T15:34:00;13.20;99.90
28530;DHT22;15737;49.760;6.632;2022-09-27T15:36:57;13.20;99.90
28530;DHT22;15737;49.760;6.632;2022-09-27T15:42:09;12.80;99.90
28530;DHT22;15737;49.760;6.632;2022-09-27T15:44:51;12.70;99.90
28530;DHT22;15737;49.760;6.632;2022-09-27T15:52:50;13.30;99.90
28530;DHT22;15737;49.760;6.632;2022-09-27T15:55:22;14.20;99.90
28530;DHT22;15737;49.760;6.632;2022-09-27T15:57:53;14.40;99.90
28530;DHT22;15737;49.760;6.632;2022-09-27T16:00:22;14.40;99.90
28530;DHT22;15737;49.760;6.632;2022-09-27T16:02:47;14.20;99.90
28530;DHT22;15737;49.760;6.632;2022-09-27T16:05:13;13.60;99.90
28530;DHT22;15737;49.760;6.632;2022-09-27T16:07:39;13.10;99.90
28530;DHT22;15737;49.760;6.632;2022-09-27T16:12:51;12.60;99.90
28530;DHT22;15737;49.760;6.632;2022-09-27T16:15:17;12.70;99.90
28530;DHT22;15737;49.760;6.632;2022-09-27T16:17:43;12.70;99.90
28530;DHT22;15737;49.760;6.632;2022-09-27T16:20:20;12.40;99.90
28530;DHT22;15737;49.760;6.632;2022-09-27T16:22:48;12.20;99.90
28530;DHT22;15737;49.760;6.632;2022-09-27T16:25:13;11.90;99.90
28530;DHT22;15737;49.760;6.632;2022-09-27T16:27:39;11.50;99.90
28530;DHT22;15737;49.760;6.632;2022-09-27T16:30:05;11.20;99.90
28530;DHT22;15737;49.760;6.632;2022-09-27T16:32:31;10.90;99.90
28530;DHT22;15737;49.760;6.632;2022-09-27T16:34:56;10.70;99.90
28530;DHT22;15737;49.760;6.632;2022-09-27T16:37:22;10.60;99.90
28530;DHT22;15737;49.760;6.632;2022-09-27T16:39:47;10.40;99.90
28530;DHT22;15737;49.760;6.632;2022-09-27T16:42:16;10.30;99.90
28530;DHT22;15737;49.760;6.632;2022-09-27T16:44:41;10.30;99.90
28530;DHT22;15737;49.760;6.632;2022-09-27T16:47:08;10.30;99.90
28530;DHT22;15737;49.760;6.632;2022-09-27T16:49:33;10.30;99.90
28530;DHT22;15737;49.760;6.632;2022-09-27T16:52:17;10.30;99.90
28530;DHT22;15737;49.760;6.632;2022-09-27T16:54:43;10.30;99.90
28530;DHT22;15737;49.760;6.632;2022-09-27T16:57:08;10.20;99.90
28530;DHT22;15737;49.760;6.632;2022-09-27T16:59:34;10.10;99.90
28530;DHT22;15737;49.760;6.632;2022-09-27T17:02:00;10.00;99.90
28530;DHT22;15737;49.760;6.632;2022-09-27T17:04:26;10.00;99.90
28530;DHT22;15737;49.760;6.632;2022-09-27T17:06:53;9.90;99.90
28530;DHT22;15737;49.760;6.632;2022-09-27T17:09:20;9.80;99.90
28530;DHT22;15737;49.760;6.632;2022-09-27T17:11:46;9.80;99.90
28530;DHT22;15737;49.760;6.632;2022-09-27T17:16:43;9.60;99.90
28530;DHT22;15737;49.760;6.632;2022-09-27T17:19:09;9.60;99.90
28530;DHT22;15737;49.760;6.632;2022-09-27T17:21:35;9.50;99.90
28530;DHT22;15737;49.760;6.632;2022-09-27T17:24:01;9.40;99.90
28530;DHT22;15737;49.760;6.632;2022-09-27T17:26:27;9.40;99.90
28530;DHT22;15737;49.760;6.632;2022-09-27T17:28:55;9.30;99.90
28530;DHT22;15737;49.760;6.632;2022-09-27T17:31:22;9.20;99.90
28530;DHT22;15737;49.760;6.632;2022-09-27T17:33:49;9.20;99.90
28530;DHT22;15737;49.760;6.632;2022-09-27T17:36:24;9.10;99.90
28530;DHT22;15737;49.760;6.632;2022-09-27T17:38:50;9.00;99.90
28530;DHT22;15737;49.760;6.632;2022-09-27T17:41:19;9.00;99.90
28530;DHT22;15737;49.760;6.632;2022-09-27T17:43:45;9.00;99.90
28530;DHT22;15737;49.760;6.632;2022-09-27T17:46:15;9.10;99.90
28530;DHT22;15737;49.760;6.632;2022-09-27T17:48:41;9.20;99.90
28530;DHT22;15737;49.760;6.632;2022-09-27T17:51:25;9.20;99.90
28530;DHT22;15737;49.760;6.632;2022-09-27T17:53:51;9.30;99.90
28530;DHT22;15737;49.760;6.632;2022-09-27T17:56:17;9.30;99.90
28530;DHT22;15737;49.760;6.632;2022-09-27T17:58:50;9.30;99.90
28530;DHT22;15737;49.760;6.632;2022-09-27T18:01:17;9.30;99.90
28530;DHT22;15737;49.760;6.632;2022-09-27T18:03:43;9.30;99.90
28530;DHT22;15737;49.760;6.632;2022-09-27T18:06:10;9.30;99.90
28530;DHT22;15737;49.760;6.632;2022-09-27T18:08:36;9.30;99.90
28530;DHT22;15737;49.760;6.632;2022-09-27T18:11:07;9.30;99.90
28530;DHT22;15737;49.760;6.632;2022-09-27T18:13:33;9.20;99.90
28530;DHT22;15737;49.760;6.632;2022-09-27T18:16:06;9.20;99.90
28530;DHT22;15737;49.760;6.632;2022-09-27T18:18:33;9.30;99.90
28530;DHT22;15737;49.760;6.632;2022-09-27T18:21:02;9.30;99.90
28530;DHT22;15737;49.760;6.632;2022-09-27T18:23:29;9.30;99.90
28530;DHT22;15737;49.760;6.632;2022-09-27T18:25:55;9.20;99.90
28530;DHT22;15737;49.760;6.632;2022-09-27T18:28:26;9.10;99.90
28530;DHT22;15737;49.760;6.632;2022-09-27T18:30:53;9.00;99.90
28530;DHT22;15737;49.760;6.632;2022-09-27T18:33:19;9.00;99.90
28530;DHT22;15737;49.760;6.632;2022-09-27T18:35:45;9.00;99.90
28530;DHT22;15737;49.760;6.632;2022-09-27T18:38:11;9.00;99.90
28530;DHT22;15737;49.760;6.632;2022-09-27T18:40:37;8.90;99.90
28530;DHT22;15737;49.760;6.632;2022-09-27T18:43:02;8.80;99.90
28530;DHT22;15737;49.760;6.632;2022-09-27T18:45:28;8.70;99.90
28530;DHT22;15737;49.760;6.632;2022-09-27T18:47:53;8.60;99.90
28530;DHT22;15737;49.760;6.632;2022-09-27T18:50:19;8.60;99.90
28530;DHT22;15737;49.760;6.632;2022-09-27T18:52:45;8.60;99.90
28530;DHT22;15737;49.760;6.632;2022-09-27T18:55:10;8.70;99.90
28530;DHT22;15737;49.760;6.632;2022-09-27T18:57:36;8.70;99.90
28530;DHT22;15737;49.760;6.632;2022-09-27T19:00:03;8.80;99.90
28530;DHT22;15737;49.760;6.632;2022-09-27T19:02:29;8.90;99.90
28530;DHT22;15737;49.760;6.632;2022-09-27T19:04:56;8.90;99.90
28530;DHT22;15737;49.760;6.632;2022-09-27T19:07:22;9.00;99.90
28530;DHT22;15737;49.760;6.632;2022-09-27T19:09:47;9.10;99.90
28530;DHT22;15737;49.760;6.632;2022-09-27T19:12:13;9.10;99.90